createdAt,value
2022-08-20T00:00:41.900Z,22.30
2022-08-20T00:03:15.839Z,22.30
2022-08-20T00:05:46.283Z,22.30
2022-08-20T00:08:13.311Z,22.30
2022-08-20T00:10:43.583Z,22.20
2022-08-20T00:13:18.086Z,22.20
2022-08-20T00:15:45.230Z,22.20
2022-08-20T00:18:12.696Z,22.20
2022-08-20T00:20:44.045Z,22.20
2022-08-20T00:23:11.275Z,22.20
2022-08-20T00:25:38.694Z,22.20
2022-08-20T00:28:07.027Z,22.20
2022-08-20T00:30:36.282Z,22.20
2022-08-20T00:33:07.227Z,22.30
2022-08-20T00:35:36.939Z,22.20
2022-08-20T00:38:04.780Z,22.20
2022-08-20T00:40:41.389Z,22.30
2022-08-20T00:43:26.859Z,22.30
2022-08-20T00:45:56.389Z,22.30
2022-08-20T00:48:32.010Z,22.30
2022-08-20T00:51:15.090Z,22.30
2022-08-20T00:53:43.151Z,22.30
2022-08-20T00:56:12.380Z,22.30
2022-08-20T00:58:42.266Z,22.30
2022-08-20T01:01:09.895Z,22.30
2022-08-20T01:03:37.134Z,22.30
2022-08-20T01:06:04.523Z,22.30
2022-08-20T01:08:31.380Z,22.30
2022-08-20T01:11:08.437Z,22.30
2022-08-20T01:13:38.313Z,22.30
2022-08-20T01:16:29.310Z,22.30
2022-08-20T01:18:57.682Z,22.30
2022-08-20T01:21:28.272Z,22.30
2022-08-20T01:24:06.653Z,22.30
2022-08-20T01:26:39.917Z,22.30
2022-08-20T01:29:17.671Z,22.40
2022-08-20T01:31:45.458Z,22.30
2022-08-20T01:34:15.177Z,22.30
2022-08-20T01:36:49.254Z,22.30
2022-08-20T01:39:24.545Z,22.30
2022-08-20T01:42:14.295Z,22.30
2022-08-20T01:44:43.361Z,22.30
2022-08-20T01:47:16.045Z,22.30
2022-08-20T01:49:47.042Z,22.30
2022-08-20T01:52:24.821Z,22.30
2022-08-20T01:54:52.581Z,22.30
2022-08-20T01:57:21.034Z,22.30
2022-08-20T01:59:50.769Z,22.30
2022-08-20T02:02:17.691Z,22.30
2022-08-20T02:04:44.653Z,22.30
2022-08-20T02:07:21.546Z,22.30
2022-08-20T02:09:49.646Z,22.30
2022-08-20T02:12:17.427Z,22.30
2022-08-20T02:14:51.179Z,22.30
2022-08-20T02:17:19.091Z,22.30
2022-08-20T02:19:50.823Z,22.30
2022-08-20T02:22:25.981Z,22.30
2022-08-20T02:24:53.377Z,22.30
2022-08-20T02:27:21.707Z,22.30
2022-08-20T02:29:48.491Z,22.30
2022-08-20T02:32:24.546Z,22.30
2022-08-20T02:35:03.434Z,22.30
2022-08-20T02:37:30.586Z,22.30
2022-08-20T02:39:57.400Z,22.30
2022-08-20T02:42:24.260Z,22.30
2022-08-20T02:44:51.476Z,22.30
2022-08-20T02:47:18.487Z,22.30
2022-08-20T02:49:45.334Z,22.30
2022-08-20T02:52:12.159Z,22.30
2022-08-20T02:54:39.028Z,22.30
2022-08-20T02:57:06.036Z,22.30
2022-08-20T02:59:33.594Z,22.30
2022-08-20T03:02:01.348Z,22.30
2022-08-20T03:04:29.929Z,22.30
2022-08-20T03:06:57.965Z,22.40
2022-08-20T03:09:25.610Z,22.30
2022-08-20T03:11:52.908Z,22.30
2022-08-20T03:14:19.906Z,22.30
2022-08-20T03:16:46.723Z,22.30
2022-08-20T03:19:13.834Z,22.30
2022-08-20T03:21:40.863Z,22.30
2022-08-20T03:24:08.085Z,22.30
2022-08-20T03:26:34.931Z,22.30
2022-08-20T03:29:02.994Z,22.30
2022-08-20T03:31:29.938Z,22.30
2022-08-20T03:33:57.066Z,22.30
2022-08-20T03:36:29.031Z,22.30
2022-08-20T03:39:01.934Z,22.30
2022-08-20T03:41:29.048Z,22.30
2022-08-20T03:43:56.419Z,22.30
2022-08-20T03:46:24.031Z,22.30
2022-08-20T03:48:56.472Z,22.30
2022-08-20T03:51:29.170Z,22.30
2022-08-20T03:53:56.072Z,22.30
2022-08-20T03:56:22.901Z,22.30
2022-08-20T03:58:49.815Z,22.30
2022-08-20T04:01:45.285Z,22.30
2022-08-20T04:04:03.630Z,22.30
2022-08-20T04:06:30.511Z,22.30
2022-08-20T04:08:57.716Z,22.30
2022-08-20T04:11:24.535Z,22.30
2022-08-20T04:13:51.649Z,22.30
2022-08-20T04:16:19.477Z,22.30
2022-08-20T04:18:56.068Z,22.30
2022-08-20T04:21:32.950Z,22.30
2022-08-20T04:24:01.012Z,22.30
2022-08-20T04:26:28.156Z,22.30
2022-08-20T04:28:55.558Z,22.30
2022-08-20T04:31:25.334Z,22.30
2022-08-20T04:33:52.477Z,22.30
2022-08-20T04:36:19.274Z,22.30
2022-08-20T04:38:49.770Z,22.30
2022-08-20T04:41:23.145Z,22.30
2022-08-20T04:43:53.603Z,22.30
2022-08-20T04:46:21.290Z,22.20
2022-08-20T04:48:49.068Z,22.20
2022-08-20T04:51:18.437Z,22.20
2022-08-20T04:53:52.511Z,22.20
2022-08-20T04:56:27.215Z,22.20
2022-08-20T04:58:56.219Z,22.20
2022-08-20T05:01:23.846Z,22.20
2022-08-20T05:03:53.553Z,22.20
2022-08-20T05:06:24.605Z,22.20
2022-08-20T05:08:52.251Z,22.20
2022-08-20T05:11:35.853Z,22.10
2022-08-20T05:14:09.023Z,22.20
2022-08-20T05:16:38.061Z,22.10
2022-08-20T05:19:08.480Z,22.10
2022-08-20T05:21:35.404Z,22.10
2022-08-20T05:24:02.847Z,22.10
2022-08-20T05:26:29.593Z,22.10
2022-08-20T05:28:58.616Z,22.10
2022-08-20T05:31:32.317Z,22.10
2022-08-20T05:34:12.270Z,22.10
2022-08-20T05:36:45.565Z,22.10
2022-08-20T05:39:14.561Z,22.20
2022-08-20T05:41:41.666Z,22.10
2022-08-20T05:44:13.223Z,22.10
2022-08-20T05:46:41.701Z,22.20
2022-08-20T05:49:10.585Z,22.20
2022-08-20T05:51:37.985Z,22.20
2022-08-20T05:54:06.179Z,22.20
2022-08-20T05:56:33.862Z,22.20
2022-08-20T05:59:04.756Z,22.20
2022-08-20T06:01:33.245Z,22.20
2022-08-20T06:04:19.059Z,22.20
2022-08-20T06:06:47.339Z,22.20
2022-08-20T06:09:16.579Z,22.20
2022-08-20T06:11:59.521Z,22.10
2022-08-20T06:14:26.678Z,22.10
2022-08-20T06:16:58.065Z,22.10
2022-08-20T06:19:27.139Z,22.00
2022-08-20T06:21:59.596Z,22.00
2022-08-20T06:24:26.890Z,22.00
2022-08-20T06:27:01.525Z,22.00
2022-08-20T06:29:28.893Z,21.90
2022-08-20T06:31:56.877Z,21.90
2022-08-20T06:34:28.148Z,21.90
2022-08-20T06:36:56.640Z,21.90
2022-08-20T06:39:24.510Z,21.90
2022-08-20T06:41:51.764Z,21.90
2022-08-20T06:44:20.049Z,21.90
2022-08-20T06:46:46.855Z,21.90
2022-08-20T06:49:13.676Z,21.90
2022-08-20T06:51:41.430Z,21.90
2022-08-20T06:54:08.679Z,21.90
2022-08-20T06:56:35.502Z,21.90
2022-08-20T06:59:02.295Z,21.90
2022-08-20T07:01:29.415Z,21.90
2022-08-20T07:03:59.520Z,21.90
2022-08-20T07:06:26.881Z,21.90
2022-08-20T07:08:55.068Z,21.90
2022-08-20T07:11:27.218Z,21.90
2022-08-20T07:13:56.963Z,21.90
2022-08-20T07:16:24.462Z,21.90
2022-08-20T07:18:51.352Z,21.90
2022-08-20T07:21:18.473Z,21.90
2022-08-20T07:23:45.332Z,21.90
2022-08-20T07:26:13.137Z,21.90
2022-08-20T07:28:40.582Z,21.90
2022-08-20T07:31:27.008Z,21.90
2022-08-20T07:33:54.242Z,21.90
2022-08-20T07:36:21.894Z,21.90
2022-08-20T07:38:52.435Z,21.90
2022-08-20T07:41:20.513Z,21.90
2022-08-20T07:43:48.314Z,21.90
2022-08-20T07:46:20.520Z,21.80
2022-08-20T07:48:50.246Z,21.80
2022-08-20T07:51:20.012Z,21.80
2022-08-20T07:53:48.520Z,21.80
2022-08-20T07:56:22.498Z,21.80
2022-08-20T07:58:55.306Z,21.80
2022-08-20T08:01:29.579Z,21.80
2022-08-20T08:03:57.729Z,21.80
2022-08-20T08:06:30.265Z,21.80
2022-08-20T08:09:08.180Z,21.80
2022-08-20T08:11:38.192Z,21.80
2022-08-20T08:14:08.344Z,21.80
2022-08-20T08:16:36.454Z,21.80
2022-08-20T08:19:06.610Z,21.80
2022-08-20T08:21:33.520Z,21.80
2022-08-20T08:24:00.461Z,21.80
2022-08-20T08:26:28.937Z,21.80
2022-08-20T08:28:56.731Z,21.80
2022-08-20T08:31:25.547Z,21.80
2022-08-20T08:33:52.385Z,21.80
2022-08-20T08:36:19.323Z,21.80
2022-08-20T08:38:46.606Z,21.80
2022-08-20T08:41:18.758Z,21.80
2022-08-20T08:43:53.259Z,21.90
2022-08-20T08:46:25.969Z,21.80
2022-08-20T08:48:56.185Z,21.80
2022-08-20T08:51:51.635Z,21.90
2022-08-20T08:54:22.122Z,21.90
2022-08-20T08:56:50.826Z,22.00
2022-08-20T08:59:21.000Z,22.00
2022-08-20T09:01:55.653Z,22.10
2022-08-20T09:04:30.364Z,22.30
2022-08-20T09:06:58.717Z,22.40
2022-08-20T09:09:31.405Z,22.50
2022-08-20T09:12:07.366Z,22.70
2022-08-20T09:14:34.791Z,22.80
2022-08-20T09:17:02.188Z,22.90
2022-08-20T09:19:29.065Z,23.10
2022-08-20T09:21:56.001Z,23.20
2022-08-20T09:24:22.899Z,23.30
2022-08-20T09:26:49.738Z,23.40
2022-08-20T09:29:16.974Z,23.50
2022-08-20T09:31:43.748Z,23.60
2022-08-20T09:34:12.008Z,23.70
2022-08-20T09:36:38.783Z,23.70
2022-08-20T09:39:05.569Z,23.70
2022-08-20T09:41:33.747Z,23.80
2022-08-20T09:44:01.781Z,23.80
2022-08-20T09:46:28.613Z,23.70
2022-08-20T09:48:56.401Z,23.70
2022-08-20T09:51:23.334Z,23.70
2022-08-20T09:53:50.568Z,23.70
2022-08-20T09:56:17.914Z,23.70
2022-08-20T09:58:51.024Z,23.70
2022-08-20T10:01:19.634Z,23.70
2022-08-20T10:03:48.830Z,23.70
2022-08-20T10:06:19.527Z,23.70
2022-08-20T10:08:47.216Z,23.60
2022-08-20T10:11:14.085Z,23.70
2022-08-20T10:13:40.927Z,23.60
2022-08-20T10:16:07.775Z,23.70
2022-08-20T10:18:36.038Z,23.70
2022-08-20T10:21:02.999Z,23.70
2022-08-20T10:23:29.808Z,23.70
2022-08-20T10:25:56.550Z,23.70
2022-08-20T10:28:23.310Z,23.70
2022-08-20T10:30:50.060Z,23.70
2022-08-20T10:33:16.833Z,23.70
2022-08-20T10:35:43.605Z,23.70
2022-08-20T10:38:10.362Z,23.70
2022-08-20T10:40:37.089Z,23.70
2022-08-20T10:43:03.887Z,23.70
2022-08-20T10:45:30.829Z,23.60
2022-08-20T10:48:01.342Z,23.60
2022-08-20T10:50:30.566Z,23.50
2022-08-20T10:52:58.142Z,23.50
2022-08-20T10:55:25.107Z,23.50
2022-08-20T10:57:51.989Z,23.50
2022-08-20T11:00:19.606Z,23.50
2022-08-20T11:02:46.984Z,23.50
2022-08-20T11:05:13.929Z,23.50
2022-08-20T11:08:00.232Z,23.50
2022-08-20T11:10:29.710Z,23.50
2022-08-20T11:12:56.823Z,23.50
2022-08-20T11:15:23.645Z,23.50
2022-08-20T11:17:50.713Z,23.50
2022-08-20T11:20:20.894Z,23.50
2022-08-20T11:22:48.070Z,23.50
2022-08-20T11:25:15.179Z,23.50
2022-08-20T11:27:45.140Z,23.50
2022-08-20T11:30:14.722Z,23.50
2022-08-20T11:32:41.980Z,23.50
2022-08-20T11:35:38.300Z,23.60
2022-08-20T11:37:58.421Z,23.50
2022-08-20T11:40:26.191Z,23.60
2022-08-20T11:43:13.519Z,23.60
2022-08-20T11:45:39.901Z,23.60
2022-08-20T11:48:06.736Z,23.60
2022-08-20T11:50:33.525Z,23.60
2022-08-20T11:53:01.655Z,23.70
2022-08-20T11:55:30.290Z,23.70
2022-08-20T11:58:00.471Z,23.70
2022-08-20T12:00:33.387Z,23.70
2022-08-20T12:03:02.031Z,23.70
2022-08-20T12:05:32.192Z,23.70
2022-08-20T12:08:01.063Z,23.70
2022-08-20T12:10:28.625Z,23.70
2022-08-20T12:12:56.779Z,23.70
2022-08-20T12:15:26.582Z,23.70
2022-08-20T12:17:54.687Z,23.70
2022-08-20T12:20:23.276Z,23.70
2022-08-20T12:22:50.272Z,23.70
2022-08-20T12:25:17.176Z,23.70
2022-08-20T12:27:43.949Z,23.70
2022-08-20T12:30:15.874Z,23.70
2022-08-20T12:32:42.990Z,23.70
2022-08-20T12:35:11.769Z,23.80
2022-08-20T12:37:39.432Z,23.80
2022-08-20T12:40:10.741Z,23.80
2022-08-20T12:42:37.979Z,23.80
2022-08-20T12:45:05.403Z,23.80
2022-08-20T12:47:35.137Z,23.80
2022-08-20T12:50:25.174Z,23.80
2022-08-20T12:52:53.375Z,23.80
2022-08-20T12:55:20.826Z,23.80
2022-08-20T12:57:50.947Z,23.80
2022-08-20T13:00:27.995Z,23.80
2022-08-20T13:02:58.254Z,23.80
2022-08-20T13:05:26.412Z,23.80
2022-08-20T13:07:54.023Z,23.80
2022-08-20T13:10:33.078Z,23.80
2022-08-20T13:13:02.748Z,23.80
2022-08-20T13:15:31.446Z,23.80
2022-08-20T13:18:00.553Z,23.80
2022-08-20T13:20:34.541Z,23.80
2022-08-20T13:23:03.943Z,23.80
2022-08-20T13:25:31.069Z,23.80
2022-08-20T13:27:59.768Z,23.80
2022-08-20T13:30:26.818Z,23.80
2022-08-20T13:32:53.817Z,23.80
2022-08-20T13:35:21.072Z,23.80
2022-08-20T13:37:50.787Z,23.80
2022-08-20T13:40:18.095Z,23.80
2022-08-20T13:42:45.291Z,23.80
2022-08-20T13:45:12.564Z,23.80
2022-08-20T13:47:41.215Z,23.80
2022-08-20T13:50:20.013Z,23.90
2022-08-20T13:52:47.128Z,23.90
2022-08-20T13:55:18.182Z,23.90
2022-08-20T13:57:46.127Z,23.90
2022-08-20T14:00:17.938Z,23.90
2022-08-20T14:02:44.918Z,23.90
2022-08-20T14:05:14.874Z,23.90
2022-08-20T14:07:46.596Z,23.80
2022-08-20T14:10:20.453Z,23.80
2022-08-20T14:12:48.196Z,23.80
2022-08-20T14:15:16.236Z,23.80
2022-08-20T14:17:50.971Z,23.80
2022-08-20T14:20:20.499Z,23.70
2022-08-20T14:22:47.432Z,23.70
2022-08-20T14:25:16.795Z,23.70
2022-08-20T14:27:43.735Z,23.70
2022-08-20T14:30:29.596Z,23.70
2022-08-20T14:32:56.917Z,23.70
2022-08-20T14:35:24.139Z,23.70
2022-08-20T14:37:53.434Z,23.70
2022-08-20T14:40:22.311Z,23.70
2022-08-20T14:42:54.597Z,23.70
2022-08-20T14:45:22.755Z,23.70
2022-08-20T14:47:57.040Z,23.70
2022-08-20T14:50:34.416Z,23.70
2022-08-20T14:53:04.915Z,23.70
2022-08-20T14:55:37.166Z,23.70
2022-08-20T14:58:11.930Z,23.70
2022-08-20T15:00:39.654Z,23.70
2022-08-20T15:03:06.598Z,23.70
2022-08-20T15:05:34.780Z,23.70
2022-08-20T15:12:24.086Z,23.70
2022-08-20T15:14:51.210Z,23.60
2022-08-20T15:17:24.981Z,23.60
2022-08-20T15:19:52.581Z,23.60
2022-08-20T15:22:19.882Z,23.60
2022-08-20T15:24:47.701Z,23.60
2022-08-20T15:27:22.873Z,23.60
2022-08-20T15:29:51.318Z,23.60
2022-08-20T15:32:18.492Z,23.60
2022-08-20T15:34:48.880Z,23.60
2022-08-20T15:37:21.859Z,23.60
2022-08-20T15:39:50.099Z,23.60
2022-08-20T15:42:18.542Z,23.50
2022-08-20T15:44:46.246Z,23.50
2022-08-20T15:47:28.815Z,23.50
2022-08-20T15:50:09.429Z,23.50
2022-08-20T15:52:44.666Z,23.60
2022-08-20T15:55:14.607Z,23.50
2022-08-20T15:58:24.162Z,23.50
2022-08-20T16:01:23.943Z,23.60
2022-08-20T16:04:02.085Z,23.60
2022-08-20T16:06:32.545Z,23.60
2022-08-20T16:09:19.757Z,23.60
2022-08-20T16:12:33.318Z,23.60
2022-08-20T16:15:11.403Z,23.60
2022-08-20T16:17:43.956Z,23.60
2022-08-20T16:20:24.721Z,23.60
2022-08-20T16:22:55.098Z,23.60
2022-08-20T16:25:28.630Z,23.60
2022-08-20T16:28:13.630Z,23.60
2022-08-20T16:30:47.761Z,23.60
2022-08-20T16:33:25.442Z,23.60
2022-08-20T16:36:03.488Z,23.60
2022-08-20T16:38:40.216Z,23.50
2022-08-20T16:41:46.632Z,23.50
2022-08-20T16:44:33.187Z,23.50
2022-08-20T16:47:20.809Z,23.50
2022-08-20T16:50:02.179Z,23.50
2022-08-20T16:52:29.316Z,23.50
2022-08-20T16:54:56.367Z,23.50
2022-08-20T16:57:23.143Z,23.50
2022-08-20T17:00:18.824Z,23.50
2022-08-20T17:02:50.522Z,23.50
2022-08-20T17:05:17.940Z,23.50
2022-08-20T17:08:08.930Z,23.50
2022-08-20T17:10:53.817Z,23.50
2022-08-20T17:13:28.585Z,23.50
2022-08-20T17:16:14.874Z,23.60
2022-08-20T17:18:44.203Z,23.60
2022-08-20T17:21:27.183Z,23.60
2022-08-20T17:24:03.008Z,23.60
2022-08-20T17:26:31.972Z,23.60
2022-08-20T17:29:02.418Z,23.50
2022-08-20T17:31:39.225Z,23.60
2022-08-20T17:34:18.513Z,23.60
2022-08-20T17:37:10.714Z,23.60
2022-08-20T17:39:46.949Z,23.60
2022-08-20T17:42:22.927Z,23.60
2022-08-20T17:44:55.589Z,23.60
2022-08-20T17:47:34.815Z,23.60
2022-08-20T17:50:10.704Z,23.60
2022-08-20T17:53:03.561Z,23.60
2022-08-20T17:55:33.562Z,23.60
2022-08-20T17:58:03.648Z,23.60
2022-08-20T18:00:31.017Z,23.60
2022-08-20T18:03:07.857Z,23.60
2022-08-20T18:05:37.252Z,23.60
2022-08-20T18:08:16.651Z,23.60
2022-08-20T18:11:05.757Z,23.60
2022-08-20T18:13:48.291Z,23.60
2022-08-20T18:16:25.385Z,23.60
2022-08-20T18:19:00.854Z,23.60
2022-08-20T18:21:50.755Z,23.60
2022-08-20T18:24:45.094Z,23.60
2022-08-20T18:27:15.515Z,23.60
2022-08-20T18:29:46.655Z,23.60
2022-08-20T18:32:37.401Z,23.50
2022-08-20T18:35:46.337Z,23.50
2022-08-20T18:38:29.078Z,23.40
2022-08-20T18:41:28.806Z,23.40
2022-08-20T18:44:13.223Z,23.30
2022-08-20T18:46:55.090Z,23.30
2022-08-20T18:49:31.625Z,23.20
2022-08-20T18:52:13.976Z,23.20
2022-08-20T18:54:49.013Z,23.20
2022-08-20T18:57:21.312Z,23.20
2022-08-20T19:00:07.470Z,23.20
2022-08-20T19:02:37.357Z,23.10
2022-08-20T19:05:09.971Z,23.10
2022-08-20T19:07:43.146Z,23.10
2022-08-20T19:10:37.725Z,23.10
2022-08-20T19:13:23.467Z,23.10
2022-08-20T19:15:55.187Z,23.10
2022-08-20T19:18:29.803Z,23.10
2022-08-20T19:20:59.204Z,23.10
2022-08-20T19:23:28.996Z,23.10
2022-08-20T19:25:58.630Z,23.10
2022-08-20T19:29:00.731Z,23.10
2022-08-20T19:31:33.045Z,23.10
2022-08-20T19:34:22.306Z,23.00
2022-08-20T19:37:08.947Z,23.00
2022-08-20T19:39:47.460Z,23.00
2022-08-20T19:42:23.592Z,23.00
2022-08-20T19:44:58.886Z,23.00
2022-08-20T19:47:37.451Z,23.00
2022-08-20T19:50:29.908Z,23.00
2022-08-20T19:53:08.023Z,23.00
2022-08-20T19:55:38.398Z,23.00
2022-08-20T19:58:20.405Z,23.00
2022-08-20T20:00:55.284Z,23.00
2022-08-20T20:03:29.167Z,23.00
2022-08-20T20:05:59.218Z,23.00
2022-08-20T20:08:39.294Z,22.90
2022-08-20T20:11:06.368Z,22.90
2022-08-20T20:13:37.707Z,22.90
2022-08-20T20:16:07.250Z,22.90
2022-08-20T20:18:37.844Z,22.90
2022-08-20T20:21:17.746Z,22.90
2022-08-20T20:23:59.069Z,22.90
2022-08-20T20:26:31.321Z,22.90
2022-08-20T20:29:16.469Z,22.80
2022-08-20T20:31:51.357Z,22.90
2022-08-20T20:34:28.904Z,22.80
2022-08-20T20:37:11.007Z,22.80
2022-08-20T20:39:41.652Z,22.80
2022-08-20T20:42:12.802Z,22.80
2022-08-20T20:44:43.278Z,22.80
2022-08-20T20:47:33.327Z,22.80
2022-08-20T20:50:07.019Z,22.80
2022-08-20T20:52:37.710Z,22.90
2022-08-20T20:55:10.299Z,22.90
2022-08-20T20:57:38.361Z,22.90
2022-08-20T21:00:13.350Z,22.90
2022-08-20T21:02:40.858Z,22.90
2022-08-20T21:05:08.447Z,22.90
2022-08-20T21:07:44.074Z,22.90
2022-08-20T21:10:11.220Z,22.90
2022-08-20T21:12:38.077Z,22.90
2022-08-20T21:15:05.557Z,22.90
2022-08-20T21:17:32.452Z,22.90
2022-08-20T21:20:02.588Z,22.90
2022-08-20T21:22:29.725Z,22.90
2022-08-20T21:24:56.531Z,22.90
2022-08-20T21:27:26.441Z,23.00
2022-08-20T21:29:54.442Z,23.00
2022-08-20T21:32:21.753Z,23.00
2022-08-20T21:34:49.494Z,23.00
2022-08-20T21:37:17.056Z,23.00
2022-08-20T21:39:45.195Z,23.00
2022-08-20T21:42:29.249Z,23.00
2022-08-20T21:44:57.943Z,23.00
2022-08-20T21:47:25.265Z,23.10
2022-08-20T21:49:52.445Z,23.10
2022-08-20T21:52:19.227Z,23.10
2022-08-20T21:54:46.144Z,23.10
2022-08-20T21:57:26.110Z,23.10
2022-08-20T21:59:53.406Z,23.10
2022-08-20T22:02:21.725Z,23.10
2022-08-20T22:04:54.010Z,23.10
2022-08-20T22:07:21.578Z,23.10
2022-08-20T22:09:48.348Z,23.10
2022-08-20T22:12:21.899Z,23.10
2022-08-20T22:14:49.180Z,23.10
2022-08-20T22:17:16.276Z,23.10
2022-08-20T22:19:43.057Z,23.10
2022-08-20T22:22:10.889Z,23.00
2022-08-20T22:24:38.700Z,23.00
2022-08-20T22:27:06.551Z,22.90
2022-08-20T22:29:33.492Z,22.90
2022-08-20T22:32:01.479Z,22.90
2022-08-20T22:34:31.917Z,22.90
2022-08-20T22:37:00.598Z,22.90
2022-08-20T22:39:27.942Z,22.80
2022-08-20T22:41:54.805Z,22.90
2022-08-20T22:44:21.881Z,22.90
2022-08-20T22:46:52.622Z,22.90
2022-08-20T22:49:26.726Z,22.90
2022-08-20T22:51:53.785Z,22.90
2022-08-20T22:54:24.869Z,22.90
2022-08-20T22:56:52.685Z,22.90
2022-08-20T22:59:21.635Z,22.90
2022-08-20T23:01:50.382Z,22.90
2022-08-20T23:04:36.291Z,22.90
2022-08-20T23:07:04.238Z,22.90
2022-08-20T23:09:31.366Z,22.90
2022-08-20T23:11:58.535Z,22.90
2022-08-20T23:14:27.067Z,22.90
2022-08-20T23:17:13.978Z,22.90
2022-08-20T23:19:41.514Z,23.00
2022-08-20T23:22:08.687Z,23.00
2022-08-20T23:24:36.367Z,23.00
2022-08-20T23:27:05.252Z,23.00
2022-08-20T23:29:32.230Z,23.00
2022-08-20T23:32:00.087Z,23.00
2022-08-20T23:34:27.136Z,23.00
2022-08-20T23:36:56.872Z,23.00
2022-08-20T23:39:24.579Z,23.00
2022-08-20T23:41:51.701Z,23.00
2022-08-20T23:44:25.958Z,23.00
2022-08-20T23:47:00.557Z,23.00
2022-08-20T23:49:28.272Z,23.10
2022-08-20T23:51:55.596Z,23.00
2022-08-20T23:54:22.576Z,23.00
2022-08-20T23:56:49.609Z,23.10
2022-08-20T23:59:16.501Z,23.10
